createdAt,value
2023-04-26T00:00:15.470Z,4
2023-04-26T00:05:15.747Z,2
2023-04-26T00:10:15.555Z,4
2023-04-26T00:15:15.541Z,3
2023-04-26T00:20:15.586Z,2
2023-04-26T00:25:15.638Z,4
2023-04-26T00:30:15.467Z,3
2023-04-26T00:35:15.579Z,4
2023-04-26T00:40:15.604Z,3
2023-04-26T00:45:15.742Z,4
2023-04-26T00:50:15.552Z,3
2023-04-26T00:55:15.774Z,4
2023-04-26T01:00:15.673Z,3
2023-04-26T01:05:15.626Z,2
2023-04-26T01:10:15.681Z,4
2023-04-26T01:15:15.850Z,8
2023-04-26T01:20:15.632Z,9
2023-04-26T01:25:15.631Z,6
2023-04-26T01:30:15.637Z,2
2023-04-26T01:35:15.675Z,2
2023-04-26T01:40:16.014Z,1
2023-04-26T01:45:15.744Z,2
2023-04-26T01:50:15.827Z,2
2023-04-26T01:55:15.960Z,3
2023-04-26T02:00:15.706Z,5
2023-04-26T02:05:15.913Z,5
2023-04-26T02:10:15.788Z,4
2023-04-26T02:15:15.741Z,4
2023-04-26T02:20:15.875Z,4
2023-04-26T02:25:15.731Z,3
2023-04-26T02:30:15.808Z,3
2023-04-26T02:35:15.769Z,3
2023-04-26T02:40:15.973Z,2
2023-04-26T02:45:15.859Z,2
2023-04-26T02:50:16.076Z,1
2023-04-26T02:55:15.851Z,1
2023-04-26T03:00:15.920Z,0
2023-04-26T03:05:15.875Z,0
2023-04-26T03:10:15.857Z,3
2023-04-26T03:15:15.930Z,3
2023-04-26T03:20:15.896Z,2
2023-04-26T03:25:16.003Z,3
2023-04-26T03:30:15.904Z,3
2023-04-26T03:35:16.044Z,3
2023-04-26T03:40:15.964Z,3
2023-04-26T03:45:15.895Z,3
2023-04-26T03:50:15.958Z,3
2023-04-26T03:55:15.899Z,2
2023-04-26T04:00:17.038Z,3
2023-04-26T04:05:17.172Z,2
2023-04-26T04:10:16.966Z,2
2023-04-26T04:15:17.105Z,3
2023-04-26T04:20:17.095Z,3
2023-04-26T04:25:17.044Z,3
2023-04-26T04:30:17.133Z,3
2023-04-26T04:35:16.975Z,3
2023-04-26T04:40:17.065Z,3
2023-04-26T04:45:17.105Z,2
2023-04-26T04:50:17.300Z,3
2023-04-26T04:55:17.273Z,4
2023-04-26T05:00:17.075Z,4
2023-04-26T05:05:17.119Z,3
2023-04-26T05:10:17.251Z,3
2023-04-26T05:15:17.090Z,3
2023-04-26T05:20:17.121Z,5
2023-04-26T05:25:17.261Z,4
2023-04-26T05:30:17.233Z,4
2023-04-26T05:35:17.117Z,3
2023-04-26T05:40:17.197Z,4
2023-04-26T05:45:16.170Z,5
2023-04-26T05:50:17.385Z,4
2023-04-26T05:55:17.463Z,2
2023-04-26T06:00:17.436Z,2
2023-04-26T06:05:17.647Z,2
2023-04-26T06:10:17.347Z,1
2023-04-26T06:15:17.183Z,0
2023-04-26T06:20:17.449Z,1
2023-04-26T06:25:17.203Z,1
2023-04-26T06:30:17.276Z,1
2023-04-26T06:35:17.404Z,0
2023-04-26T06:40:17.318Z,1
2023-04-26T06:45:17.429Z,1
2023-04-26T06:50:17.607Z,1
2023-04-26T06:55:17.412Z,1
2023-04-26T07:00:17.361Z,1
2023-04-26T07:05:17.465Z,1
2023-04-26T07:10:17.446Z,1
2023-04-26T07:15:17.302Z,1
2023-04-26T07:20:17.358Z,1
2023-04-26T07:25:17.405Z,1
2023-04-26T07:30:17.501Z,1
2023-04-26T07:35:17.374Z,1
2023-04-26T07:40:15.479Z,1
2023-04-26T07:45:15.508Z,0
2023-04-26T07:50:15.562Z,1
2023-04-26T07:55:17.548Z,1
2023-04-26T08:00:15.397Z,1
2023-04-26T08:05:15.842Z,2
2023-04-26T08:10:15.546Z,2
2023-04-26T08:15:15.435Z,2
2023-04-26T08:20:15.595Z,2
2023-04-26T08:25:15.497Z,2
2023-04-26T08:30:15.545Z,2
2023-04-26T08:35:15.514Z,2
2023-04-26T08:40:15.619Z,2
2023-04-26T08:45:15.575Z,2
2023-04-26T08:50:15.679Z,2
2023-04-26T08:55:15.535Z,2
2023-04-26T09:00:15.564Z,4
2023-04-26T09:05:15.661Z,3
2023-04-26T09:10:15.727Z,3
2023-04-26T09:15:15.691Z,2
2023-04-26T09:20:15.600Z,3
2023-04-26T09:25:15.596Z,3
2023-04-26T09:30:15.757Z,2
2023-04-26T09:35:15.743Z,2
2023-04-26T09:40:15.586Z,3
2023-04-26T09:45:15.799Z,2
2023-04-26T09:50:15.772Z,1
2023-04-26T09:55:25.388Z,1
2023-04-26T10:00:15.720Z,1
2023-04-26T10:05:15.962Z,1
2023-04-26T10:10:15.797Z,2
2023-04-26T10:15:15.966Z,1
2023-04-26T10:20:15.783Z,1
2023-04-26T10:25:15.728Z,2
2023-04-26T10:30:15.900Z,2
2023-04-26T10:35:15.744Z,2
2023-04-26T10:40:15.921Z,2
2023-04-26T10:45:15.888Z,2
2023-04-26T10:50:15.932Z,1
2023-04-26T10:55:15.827Z,3
2023-04-26T11:00:15.885Z,3
2023-04-26T11:05:15.777Z,3
2023-04-26T11:10:15.842Z,3
2023-04-26T11:15:15.872Z,3
2023-04-26T11:20:15.893Z,2
2023-04-26T11:25:15.961Z,2
2023-04-26T11:30:15.851Z,3
2023-04-26T11:35:15.956Z,2
2023-04-26T11:40:15.922Z,3
2023-04-26T11:45:16.048Z,3
2023-04-26T11:50:16.021Z,4
2023-04-26T11:55:15.896Z,4
2023-04-26T12:00:15.925Z,4
2023-04-26T12:05:16.105Z,4
2023-04-26T12:10:15.931Z,5
2023-04-26T12:15:16.106Z,3
2023-04-26T12:20:15.942Z,3
2023-04-26T12:25:15.946Z,3
2023-04-26T12:30:16.034Z,3
2023-04-26T12:35:15.963Z,2
2023-04-26T12:40:15.949Z,2
2023-04-26T12:45:16.063Z,1
2023-04-26T12:50:18.493Z,2
2023-04-26T12:55:16.047Z,3
2023-04-26T13:00:16.152Z,3
2023-04-26T13:05:16.298Z,2
2023-04-26T13:10:16.164Z,3
2023-04-26T13:15:17.583Z,2
2023-04-26T13:20:16.081Z,6
2023-04-26T13:25:16.056Z,5
2023-04-26T13:30:16.080Z,4
2023-04-26T13:35:16.118Z,5
2023-04-26T13:40:16.290Z,5
2023-04-26T13:45:17.601Z,4
2023-04-26T13:50:16.294Z,4
2023-04-26T13:55:19.449Z,3
2023-04-26T14:00:16.208Z,5
2023-04-26T14:05:16.598Z,5
2023-04-26T14:10:16.213Z,5
2023-04-26T14:15:16.142Z,6
2023-04-26T14:20:16.267Z,3
2023-04-26T14:25:16.178Z,6
2023-04-26T14:30:16.203Z,5
2023-04-26T14:35:16.245Z,3
2023-04-26T14:40:16.227Z,3
2023-04-26T14:45:16.408Z,5
2023-04-26T14:50:16.291Z,6
2023-04-26T14:55:16.184Z,6
2023-04-26T15:00:16.262Z,5
2023-04-26T15:05:16.333Z,6
2023-04-26T15:10:16.255Z,5
2023-04-26T15:15:16.317Z,5
2023-04-26T15:20:16.347Z,4
2023-04-26T15:25:16.380Z,2
2023-04-26T15:30:16.297Z,7
2023-04-26T15:35:16.398Z,5
2023-04-26T15:40:16.309Z,7
2023-04-26T15:45:16.336Z,6
2023-04-26T15:50:16.413Z,8
2023-04-26T15:55:16.318Z,10
2023-04-26T16:00:16.430Z,10
2023-04-26T16:05:16.663Z,8
2023-04-26T16:10:16.442Z,5
2023-04-26T16:15:16.406Z,6
2023-04-26T16:20:16.474Z,7
2023-04-26T16:25:16.480Z,9
2023-04-26T16:30:16.444Z,9
2023-04-26T16:35:16.428Z,6
2023-04-26T16:40:16.539Z,5
2023-04-26T16:45:16.869Z,6
2023-04-26T16:50:16.654Z,6
2023-04-26T16:55:16.764Z,7
2023-04-26T17:00:16.657Z,6
2023-04-26T17:05:16.532Z,8
2023-04-26T17:10:16.566Z,7
2023-04-26T17:15:16.718Z,8
2023-04-26T17:20:16.528Z,7
2023-04-26T17:25:16.563Z,7
2023-04-26T17:30:16.629Z,6
2023-04-26T17:35:16.649Z,8
2023-04-26T17:40:16.617Z,8
2023-04-26T17:45:16.614Z,12
2023-04-26T17:50:16.682Z,8
2023-04-26T17:55:16.599Z,7
2023-04-26T18:00:16.650Z,5
2023-04-26T18:05:16.739Z,10
2023-04-26T18:10:16.621Z,8
2023-04-26T18:15:16.794Z,8
2023-04-26T18:20:16.742Z,7
2023-04-26T18:25:16.767Z,6
2023-04-26T18:30:16.726Z,7
2023-04-26T18:35:16.682Z,6
2023-04-26T18:40:16.966Z,10
2023-04-26T18:45:16.740Z,8
2023-04-26T18:50:16.810Z,8
2023-04-26T18:55:16.712Z,9
2023-04-26T19:00:17.028Z,10
2023-04-26T19:05:16.981Z,8
2023-04-26T19:10:16.824Z,8
2023-04-26T19:15:16.930Z,7
2023-04-26T19:20:16.819Z,7
2023-04-26T19:25:16.946Z,9
2023-04-26T19:30:16.852Z,8
2023-04-26T19:35:16.896Z,9
2023-04-26T19:40:16.945Z,8
2023-04-26T19:45:16.901Z,7
2023-04-26T19:50:16.868Z,7
2023-04-26T19:55:16.934Z,7
2023-04-26T20:00:16.944Z,8
2023-04-26T20:05:16.967Z,8
2023-04-26T20:10:16.863Z,10
2023-04-26T20:15:17.008Z,10
2023-04-26T20:20:16.909Z,11
2023-04-26T20:25:16.920Z,10
2023-04-26T20:30:16.974Z,10
2023-04-26T20:35:16.925Z,8
2023-04-26T20:40:16.903Z,8
2023-04-26T20:45:17.155Z,10
2023-04-26T20:50:17.036Z,9
2023-04-26T20:55:16.993Z,9
2023-04-26T21:00:17.081Z,9
2023-04-26T21:05:17.033Z,8
2023-04-26T21:10:17.097Z,9
2023-04-26T21:15:17.031Z,10
2023-04-26T21:20:17.050Z,9
2023-04-26T21:25:17.155Z,9
2023-04-26T21:30:17.072Z,10
2023-04-26T21:35:17.103Z,9
2023-04-26T21:40:17.163Z,8
2023-04-26T21:45:17.234Z,10
2023-04-26T21:50:17.164Z,10
2023-04-26T21:55:17.066Z,9
2023-04-26T22:00:17.124Z,8
2023-04-26T22:05:17.184Z,10
2023-04-26T22:10:17.228Z,10
2023-04-26T22:15:17.389Z,5
2023-04-26T22:20:17.170Z,7
2023-04-26T22:25:17.204Z,6
2023-04-26T22:30:25.632Z,6
2023-04-26T22:35:17.200Z,9
2023-04-26T22:40:17.354Z,6
2023-04-26T22:45:17.499Z,6
2023-04-26T22:50:17.208Z,5
2023-04-26T22:55:17.345Z,5
2023-04-26T23:00:17.221Z,7
2023-04-26T23:05:17.267Z,8
2023-04-26T23:10:17.391Z,9
2023-04-26T23:15:17.326Z,10
2023-04-26T23:20:17.307Z,8
2023-04-26T23:25:17.467Z,9
2023-04-26T23:30:17.825Z,7
2023-04-26T23:35:17.433Z,6
2023-04-26T23:40:17.456Z,4
2023-04-26T23:45:17.423Z,6
2023-04-26T23:50:17.545Z,5
2023-04-26T23:55:17.336Z,6
